| time (UTC) | temp C | wind direction | speed KPH | gust KPH | rain 1hr cm | rain 24hr cm | rain mn cm | humidity % | barometer mb |
| 20260905042514 | 27 | 338 | 0.0 | 0.0 | 0.00 | 0.00 | 0.00 | 86 | 1014.1 |
| 20260905042004 | 27 | 337 | 1.6 | 1.6 | 0.00 | 0.00 | 0.00 | 86 | 1014.4 |
| 20260905041500 | 27 | 339 | 1.6 | 1.6 | 0.00 | 0.00 | 0.00 | 86 | 1014.4 |
| 20260905040955 | 27 | 346 | 0.0 | 0.0 | 0.00 | 0.00 | 0.00 | 85 | 1014.4 |
| 20260905040454 | 27 | 9 | 1.6 | 3.2 | 0.00 | 0.00 | 0.00 | 85 | 1014.4 |
| 20260905035953 | 27 | 24 | 1.6 | 1.6 | 0.00 | 0.00 | 0.00 | 84 | 1014.5 |
| 20260905035448 | 27 | 19 | 1.6 | 1.6 | 0.00 | 0.00 | 0.00 | 84 | 1014.5 |
| 20260905034946 | 27 | 17 | 3.2 | 3.2 | 0.00 | 0.00 | 0.00 | 84 | 1014.4 |
| 20260905034441 | 27 | 52 | 3.2 | 4.8 | 0.00 | 0.00 | 0.00 | 83 | 1014.4 |
| 20260905033940 | 27 | 32 | 1.6 | 3.2 | 0.00 | 0.00 | 0.00 | 83 | 1014.4 |
| 20260905033439 | 27 | 13 | 1.6 | 3.2 | 0.00 | 0.00 | 0.00 | 83 | 1014.4 |
| 20260905032934 | 27 | 14 | 1.6 | 1.6 | 0.00 | 0.00 | 0.00 | 83 | 1014.4 |
| 20260905032430 | 28 | 349 | 3.2 | 3.2 | 0.00 | 0.00 | 0.00 | 82 | 1014.4 |
| 20260905031924 | 28 | 351 | 1.6 | 1.6 | 0.00 | 0.00 | 0.00 | 81 | 1014.4 |
| 20260905031421 | 27 | 46 | 3.2 | 4.8 | 0.00 | 0.00 | 0.00 | 82 | 1014.4 |
| 20260905030916 | 27 | 11 | 1.6 | 3.2 | 0.00 | 0.00 | 0.00 | 82 | 1014.4 |
| 20260905030411 | 28 | 13 | 1.6 | 1.6 | 0.00 | 0.00 | 0.00 | 81 | 1014.6 |
| 20260905025910 | 28 | 14 | 0.0 | 1.6 | 0.00 | 0.00 | 0.00 | 81 | 1014.4 |
| 20260905025405 | 28 | 52 | 3.2 | 3.2 | 0.00 | 0.00 | 0.00 | 81 | 1014.4 |
| 20260905024902 | 28 | 9 | 1.6 | 1.6 | 0.00 | 0.00 | 0.00 | 80 | 1014.5 |
| 20260905024356 | 28 | 10 | 1.6 | 1.6 | 0.00 | 0.00 | 0.00 | 80 | 1014.2 |
| 20260905023852 | 28 | 4 | 0.0 | 1.6 | 0.00 | 0.00 | 0.00 | 78 | 1014.1 |
| 20260905023347 | 28 | 352 | 0.0 | 0.0 | 0.00 | 0.00 | 0.00 | 78 | 1014.0 |
| 20260905022846 | 28 | 37 | 3.2 | 3.2 | 0.00 | 0.00 | 0.00 | 78 | 1014.1 |
| 20260905022341 | 28 | 38 | 3.2 | 3.2 | 0.00 | 0.00 | 0.00 | 78 | 1014.1 |
| 20260905021836 | 28 | 0 | 1.6 | 1.6 | 0.00 | 0.00 | 0.00 | 77 | 1014.1 |
| 20260905021331 | 28 | 13 | 0.0 | 1.6 | 0.00 | 0.00 | 0.00 | 76 | 1013.9 |
| 20260905020826 | 28 | 2 | 3.2 | 4.8 | 0.00 | 0.00 | 0.00 | 76 | 1013.6 |
| 20260905020321 | 29 | 346 | 3.2 | 3.2 | 0.00 | 0.00 | 0.00 | 75 | 1013.6 |
| 20260905015820 | 29 | 347 | 0.0 | 1.6 | 0.00 | 0.00 | 0.00 | 74 | 1013.5 |
| 20260905015314 | 29 | 18 | 3.2 | 3.2 | 0.00 | 0.00 | 0.00 | 74 | 1013.4 |
| 20260905014813 | 30 | 328 | 3.2 | 4.8 | 0.00 | 0.00 | 0.00 | 73 | 1013.2 |
| 20260905014309 | 29 | 347 | 0.0 | 0.0 | 0.00 | 0.00 | 0.00 | 73 | 1012.9 |
| 20260905013804 | 30 | 301 | 3.2 | 3.2 | 0.00 | 0.00 | 0.00 | 73 | 1012.6 |
| 20260905013300 | 30 | 325 | 1.6 | 1.6 | 0.00 | 0.00 | 0.00 | 72 | 1012.4 |
| 20260905012755 | 30 | 352 | 1.6 | 1.6 | 0.00 | 0.00 | 0.00 | 71 | 1012.4 |
| 20260905012251 | 30 | 319 | 3.2 | 3.2 | 0.00 | 0.00 | 0.00 | 71 | 1012.6 |
| 20260905011748 | 30 | 235 | 6.4 | 9.7 | 0.00 | 0.00 | 0.00 | 70 | 1012.3 |
| 20260905011243 | 30 | 70 | 11.3 | 12.9 | 0.00 | 0.00 | 0.00 | 70 | 1012.2 |
| 20260905010737 | 31 | 231 | 4.8 | 6.4 | 0.00 | 0.00 | 0.00 | 69 | 1012.3 |
| 20260905010232 | 31 | 252 | 12.9 | 14.5 | 0.00 | 0.00 | 0.00 | 68 | 1012.3 |
| 20260905005729 | 31 | 290 | 9.7 | 14.5 | 0.00 | 0.00 | 0.00 | 66 | 1012.4 |
| 20260905005225 | 31 | 251 | 8.0 | 11.3 | 0.00 | 0.00 | 0.00 | 66 | 1012.4 |
| 20260905004724 | 31 | 250 | 11.3 | 12.9 | 0.00 | 0.00 | 0.00 | 67 | 1012.6 |
| 20260905004220 | 31 | 253 | 11.3 | 14.5 | 0.00 | 0.00 | 0.00 | 67 | 1012.9 |
| 20260905003720 | 31 | 262 | 12.9 | 14.5 | 0.00 | 0.00 | 0.00 | 68 | 1013.0 |
| 20260905003216 | 31 | 267 | 8.0 | 9.7 | 0.00 | 0.00 | 0.00 | 69 | 1013.0 |
| 20260905002711 | 31 | 251 | 6.4 | 9.7 | 0.00 | 0.00 | 0.00 | 68 | 1013.3 |
| 20260905002211 | 31 | 271 | 4.8 | 6.4 | 0.00 | 0.00 | 0.00 | 68 | 1013.4 |
| 20260905001706 | 32 | 248 | 4.8 | 6.4 | 0.00 | 0.00 | 0.00 | 67 | 1013.4 |
| 20260905001205 | 32 | 328 | 4.8 | 6.4 | 0.00 | 0.00 | 0.00 | 66 | 1013.5 |
| 20260905000700 | 32 | 290 | 4.8 | 4.8 | 0.00 | 0.00 | 0.00 | 65 | 1013.7 |
| 20260905000156 | 32 | 291 | 3.2 | 3.2 | 0.00 | 0.00 | 0.00 | 64 | 1013.6 |
| 20260904235657 | 32 | 304 | 3.2 | 3.2 | 0.00 | 0.00 | 0.00 | 64 | 1013.7 |
| 20260904235156 | 32 | 322 | 4.8 | 4.8 | 0.00 | 0.00 | 0.00 | 63 | 1013.6 |
| 20260904234651 | 33 | 327 | 1.6 | 1.6 | 0.00 | 0.00 | 0.00 | 63 | 1013.9 |
| 20260904234147 | 33 | 326 | 4.8 | 6.4 | 0.00 | 0.00 | 0.00 | 62 | 1013.7 |
| 20260904233642 | 33 | 291 | 3.2 | 4.8 | 0.00 | 0.00 | 0.00 | 62 | 1013.7 |
| 20260904233138 | 33 | 337 | 3.2 | 3.2 | 0.00 | 0.00 | 0.00 | 60 | 1013.9 |
| 20260904232635 | 33 | 255 | 6.4 | 6.4 | 0.00 | 0.00 | 0.00 | 60 | 1013.7 |
| 20260904232131 | 34 | 327 | 3.2 | 3.2 | 0.00 | 0.00 | 0.00 | 59 | 1013.7 |
| 20260904231626 | 34 | 307 | 6.4 | 6.4 | 0.00 | 0.00 | 0.00 | 59 | 1013.9 |
| 20260904231126 | 34 | 305 | 3.2 | 3.2 | 0.00 | 0.00 | 0.00 | 58 | 1013.6 |
| 20260904230621 | 34 | 271 | 6.4 | 9.7 | 0.00 | 0.00 | 0.00 | 58 | 1014.0 |
| 20260904230116 | 34 | 274 | 8.0 | 9.7 | 0.00 | 0.00 | 0.00 | 58 | 1013.9 |
| 20260904225614 | 34 | 297 | 9.7 | 12.9 | 0.00 | 0.00 | 0.00 | 58 | 1013.7 |
| 20260904225108 | 34 | 273 | 6.4 | 11.3 | 0.00 | 0.00 | 0.00 | 58 | 1014.0 |
| 20260904224603 | 34 | 333 | 3.2 | 3.2 | 0.00 | 0.00 | 0.00 | 56 | 1013.6 |
| 20260904224058 | 35 | 257 | 9.7 | 12.9 | 0.00 | 0.00 | 0.00 | 56 | 1013.3 |
| 20260904223557 | 35 | 289 | 6.4 | 9.7 | 0.00 | 0.00 | 0.00 | 55 | 1013.2 |
| 20260904223053 | 35 | 249 | 14.5 | 17.7 | 0.00 | 0.00 | 0.00 | 55 | 1012.9 |
| 20260904222548 | 35 | 279 | 9.7 | 12.9 | 0.00 | 0.00 | 0.00 | 55 | 1012.8 |
| 20260904222043 | 35 | 251 | 14.5 | 17.7 | 0.00 | 0.00 | 0.00 | 55 | 1012.8 |
| 20260904221538 | 35 | 252 | 14.5 | 17.7 | 0.00 | 0.00 | 0.00 | 55 | 1012.7 |
| 20260904221033 | 35 | 14 | 17.7 | 20.9 | 0.00 | 0.00 | 0.00 | 55 | 1012.7 |
| 20260904220533 | 35 | 250 | 9.7 | 12.9 | 0.00 | 0.00 | 0.00 | 56 | 1012.6 |
| 20260904220029 | 34 | 271 | 11.3 | 14.5 | 0.00 | 0.00 | 0.00 | 56 | 1012.6 |
| 20260904215528 | 35 | 267 | 9.7 | 14.5 | 0.00 | 0.00 | 0.00 | 55 | 1012.6 |
| 20260904215024 | 35 | 215 | 11.3 | 12.9 | 0.00 | 0.00 | 0.00 | 55 | 1012.6 |
| 20260904214520 | 34 | 327 | 11.3 | 14.5 | 0.00 | 0.00 | 0.00 | 55 | 1012.6 |
| 20260904214015 | 35 | 223 | 8.0 | 11.3 | 0.00 | 0.00 | 0.00 | 54 | 1012.7 |
| 20260904213512 | 35 | 237 | 14.5 | 20.9 | 0.00 | 0.00 | 0.00 | 56 | 1012.9 |
| 20260904213010 | 35 | 270 | 16.1 | 17.7 | 0.00 | 0.00 | 0.00 | 57 | 1013.0 |
| 20260904212508 | 35 | 215 | 9.7 | 11.3 | 0.00 | 0.00 | 0.00 | 56 | 1012.9 |
| 20260904212003 | 35 | 288 | 12.9 | 16.1 | 0.00 | 0.00 | 0.00 | 54 | 1013.1 |
| 20260904211458 | 35 | 339 | 4.8 | 6.4 | 0.00 | 0.00 | 0.00 | 54 | 1013.0 |
| 20260904210954 | 35 | 283 | 6.4 | 9.7 | 0.00 | 0.00 | 0.00 | 55 | 1013.0 |
| 20260904210453 | 35 | 236 | 6.4 | 6.4 | 0.00 | 0.00 | 0.00 | 55 | 1013.0 |
| 20260904205949 | 35 | 262 | 12.9 | 14.5 | 0.00 | 0.00 | 0.00 | 55 | 1012.9 |
| 20260904205444 | 35 | 261 | 16.1 | 22.5 | 0.00 | 0.00 | 0.00 | 54 | 1013.0 |
| 20260904204942 | 35 | 265 | 9.7 | 12.9 | 0.00 | 0.00 | 0.00 | 55 | 1013.0 |
| 20260904204442 | 35 | 267 | 8.0 | 9.7 | 0.00 | 0.00 | 0.00 | 55 | 1012.9 |
| 20260904203938 | 35 | 266 | 14.5 | 16.1 | 0.00 | 0.00 | 0.00 | 55 | 1012.9 |
| 20260904203434 | 33 | 274 | 11.3 | 14.5 | 0.00 | 0.00 | 0.00 | 57 | 1012.9 |
| 20260904202930 | 33 | 260 | 6.4 | 9.7 | 0.00 | 0.00 | 0.00 | 59 | 1012.9 |
| 20260904202426 | 33 | 275 | 6.4 | 6.4 | 0.00 | 0.00 | 0.00 | 59 | 1012.9 |
| 20260904201921 | 33 | 259 | 14.5 | 14.5 | 0.00 | 0.00 | 0.00 | 58 | 1013.0 |
| 20260904201416 | 33 | 242 | 9.7 | 14.5 | 0.00 | 0.00 | 0.00 | 58 | 1013.1 |
| 20260904200913 | 33 | 262 | 8.0 | 9.7 | 0.00 | 0.00 | 0.00 | 58 | 1013.2 |
| 20260904200410 | 33 | 243 | 9.7 | 12.9 | 0.00 | 0.00 | 0.00 | 58 | 1013.2 |
| 20260904195907 | 33 | 227 | 8.0 | 11.3 | 0.00 | 0.00 | 0.00 | 58 | 1013.3 |
| 20260904195404 | 33 | 279 | 1.6 | 3.2 | 0.00 | 0.00 | 0.00 | 58 | 1013.4 |
| 20260904194858 | 33 | 274 | 4.8 | 6.4 | 0.00 | 0.00 | 0.00 | 58 | 1013.6 |
| 20260904194358 | 33 | 260 | 8.0 | 11.3 | 0.00 | 0.00 | 0.00 | 58 | 1013.6 |
| 20260904193854 | 33 | 235 | 14.5 | 17.7 | 0.00 | 0.00 | 0.00 | 58 | 1014.0 |
| 20260904193349 | 33 | 281 | 9.7 | 11.3 | 0.00 | 0.00 | 0.00 | 58 | 1013.4 |
| 20260904192844 | 34 | 281 | 9.7 | 12.9 | 0.00 | 0.00 | 0.00 | 57 | 1014.0 |
| 20260904192339 | 33 | 300 | 11.3 | 12.9 | 0.00 | 0.00 | 0.00 | 56 | 1013.9 |
| 20260904191836 | 34 | 289 | 9.7 | 11.3 | 0.00 | 0.00 | 0.00 | 56 | 1013.9 |
| 20260904191332 | 35 | 269 | 17.7 | 20.9 | 0.00 | 0.00 | 0.00 | 54 | 1014.3 |
| 20260904190828 | 34 | 283 | 6.4 | 9.7 | 0.00 | 0.00 | 0.00 | 56 | 1014.0 |
| 20260904190324 | 34 | 214 | 6.4 | 9.7 | 0.00 | 0.00 | 0.00 | 56 | 1014.1 |
| 20260904185820 | 34 | 243 | 14.5 | 20.9 | 0.00 | 0.00 | 0.00 | 54 | 1014.2 |
| 20260904185316 | 34 | 278 | 12.9 | 17.7 | 0.00 | 0.00 | 0.00 | 55 | 1014.3 |
| 20260904184815 | 34 | 247 | 8.0 | 9.7 | 0.00 | 0.00 | 0.00 | 54 | 1014.3 |
| 20260904184310 | 35 | 272 | 8.0 | 11.3 | 0.00 | 0.00 | 0.00 | 54 | 1014.2 |
| 20260904183806 | 35 | 254 | 17.7 | 17.7 | 0.00 | 0.00 | 0.00 | 54 | 1014.4 |
| 20260904183305 | 35 | 266 | 11.3 | 14.5 | 0.00 | 0.00 | 0.00 | 53 | 1014.3 |
| 20260904182800 | 34 | 245 | 12.9 | 16.1 | 0.00 | 0.00 | 0.00 | 53 | 1014.7 |
| 20260904182255 | 34 | 5 | 8.0 | 11.3 | 0.00 | 0.00 | 0.00 | 54 | 1014.4 |
| 20260904181751 | 34 | 8 | 8.0 | 12.9 | 0.00 | 0.00 | 0.00 | 55 | 1014.7 |
| 20260904181251 | 34 | 274 | 8.0 | 9.7 | 0.00 | 0.00 | 0.00 | 57 | 1014.5 |
| 20260904180746 | 34 | 308 | 6.4 | 6.4 | 0.00 | 0.00 | 0.00 | 55 | 1014.5 |
| 20260904180242 | 34 | 242 | 3.2 | 6.4 | 0.00 | 0.00 | 0.00 | 55 | 1014.5 |
| 20260904175741 | 33 | 321 | 4.8 | 4.8 | 0.00 | 0.00 | 0.00 | 55 | 1014.6 |
| 20260904175239 | 34 | 270 | 9.7 | 11.3 | 0.00 | 0.00 | 0.00 | 55 | 1014.7 |
| 20260904174734 | 33 | 322 | 4.8 | 4.8 | 0.00 | 0.00 | 0.00 | 58 | 1014.6 |
| 20260904174230 | 33 | 268 | 9.7 | 12.9 | 0.00 | 0.00 | 0.00 | 56 | 1014.6 |
| 20260904173726 | 35 | 260 | 11.3 | 12.9 | 0.00 | 0.00 | 0.00 | 55 | 1014.6 |
| 20260904173226 | 35 | 246 | 6.4 | 9.7 | 0.00 | 0.00 | 0.00 | 54 | 1014.4 |
| 20260904172723 | 34 | 253 | 6.4 | 9.7 | 0.00 | 0.00 | 0.00 | 54 | 1014.6 |
| 20260904172221 | 33 | 346 | 6.4 | 9.7 | 0.00 | 0.00 | 0.00 | 54 | 1014.6 |
| 20260904171717 | 33 | 291 | 4.8 | 9.7 | 0.00 | 0.00 | 0.00 | 55 | 1014.8 |
| 20260904171212 | 34 | 279 | 12.9 | 14.5 | 0.00 | 0.00 | 0.00 | 55 | 1014.7 |
| 20260904170708 | 34 | 290 | 4.8 | 4.8 | 0.00 | 0.00 | 0.00 | 55 | 1014.9 |
| 20260904170204 | 33 | 257 | 9.7 | 11.3 | 0.00 | 0.00 | 0.00 | 56 | 1014.8 |
| 20260904165703 | 33 | 267 | 8.0 | 11.3 | 0.00 | 0.00 | 0.00 | 57 | 1014.7 |
| 20260904165202 | 33 | 306 | 6.4 | 9.7 | 0.00 | 0.00 | 0.00 | 57 | 1014.7 |
| 20260904164658 | 34 | 273 | 4.8 | 6.4 | 0.00 | 0.00 | 0.00 | 59 | 1014.9 |
| 20260904164157 | 34 | 350 | 1.6 | 3.2 | 0.00 | 0.00 | 0.00 | 57 | 1014.9 |
| 20260904163654 | 33 | 342 | 3.2 | 6.4 | 0.00 | 0.00 | 0.00 | 58 | 1014.8 |
| 20260904163149 | 33 | 285 | 6.4 | 6.4 | 0.00 | 0.00 | 0.00 | 59 | 1015.0 |
| 20260904162648 | 33 | 271 | 6.4 | 6.4 | 0.00 | 0.00 | 0.00 | 60 | 1014.9 |
| 20260904162143 | 33 | 261 | 3.2 | 6.4 | 0.00 | 0.00 | 0.00 | 60 | 1015.0 |
| 20260904161639 | 33 | 252 | 17.7 | 20.9 | 0.00 | 0.00 | 0.00 | 59 | 1014.9 |
| 20260904161133 | 33 | 261 | 4.8 | 4.8 | 0.00 | 0.00 | 0.00 | 60 | 1014.9 |
| 20260904160629 | 32 | 322 | 3.2 | 4.8 | 0.00 | 0.00 | 0.00 | 59 | 1015.1 |
| 20260904160125 | 32 | 234 | 8.0 | 9.7 | 0.00 | 0.00 | 0.00 | 61 | 1015.0 |
| 20260904155620 | 32 | 247 | 6.4 | 11.3 | 0.00 | 0.00 | 0.00 | 63 | 1015.1 |
| 20260904155114 | 32 | 273 | 3.2 | 3.2 | 0.00 | 0.00 | 0.00 | 62 | 1015.2 |
| 20260904154608 | 32 | 199 | 6.4 | 6.4 | 0.00 | 0.00 | 0.00 | 63 | 1015.0 |
| 20260904154102 | 32 | 330 | 3.2 | 4.8 | 0.00 | 0.00 | 0.00 | 64 | 1015.0 |
| 20260904153601 | 32 | 291 | 4.8 | 4.8 | 0.00 | 0.00 | 0.00 | 64 | 1014.8 |
| 20260904153053 | 31 | 227 | 4.8 | 6.4 | 0.00 | 0.00 | 0.00 | 64 | 1014.9 |
| 20260904152548 | 31 | 271 | 4.8 | 6.4 | 0.00 | 0.00 | 0.00 | 66 | 1014.9 |
| 20260904152043 | 31 | 300 | 4.8 | 6.4 | 0.00 | 0.00 | 0.00 | 64 | 1014.8 |
| 20260904151538 | 31 | 282 | 4.8 | 6.4 | 0.00 | 0.00 | 0.00 | 66 | 1014.9 |
| 20260904151038 | 31 | 353 | 0.0 | 1.6 | 0.00 | 0.00 | 0.00 | 65 | 1014.8 |
| 20260904150538 | 32 | 290 | 8.0 | 11.3 | 0.00 | 0.00 | 0.00 | 63 | 1014.8 |
| 20260904150033 | 30 | 328 | 4.8 | 4.8 | 0.00 | 0.00 | 0.00 | 67 | 1014.9 |
| 20260904145532 | 30 | 254 | 6.4 | 6.4 | 0.00 | 0.00 | 0.00 | 68 | 1014.8 |
| 20260904145027 | 31 | 340 | 3.2 | 6.4 | 0.00 | 0.00 | 0.00 | 68 | 1014.7 |
| 20260904144523 | 31 | 288 | 3.2 | 4.8 | 0.00 | 0.00 | 0.00 | 67 | 1014.5 |
| 20260904144019 | 30 | 358 | 0.0 | 0.0 | 0.00 | 0.00 | 0.00 | 69 | 1014.7 |
| 20260904143514 | 30 | 326 | 6.4 | 6.4 | 0.00 | 0.00 | 0.00 | 71 | 1014.7 |
| 20260904143011 | 30 | 306 | 3.2 | 3.2 | 0.00 | 0.00 | 0.00 | 69 | 1014.8 |
| 20260904142507 | 29 | 267 | 3.2 | 4.8 | 0.00 | 0.00 | 0.00 | 73 | 1014.6 |
| 20260904142007 | 28 | 299 | 1.6 | 1.6 | 0.00 | 0.00 | 0.00 | 73 | 1014.6 |
| 20260904141502 | 28 | 299 | 3.2 | 3.2 | 0.00 | 0.00 | 0.00 | 74 | 1014.5 |
| 20260904140958 | 28 | 236 | 3.2 | 4.8 | 0.00 | 0.00 | 0.00 | 74 | 1014.5 |
| 20260904140453 | 28 | 316 | 3.2 | 4.8 | 0.00 | 0.00 | 0.00 | 76 | 1014.5 |
| 20260904135952 | 28 | 260 | 4.8 | 4.8 | 0.00 | 0.00 | 0.00 | 76 | 1014.4 |
| 20260904135452 | 27 | 271 | 6.4 | 6.4 | 0.00 | 0.00 | 0.00 | 76 | 1014.4 |
| 20260904134948 | 27 | 214 | 8.0 | 9.7 | 0.00 | 0.00 | 0.00 | 77 | 1014.5 |
| 20260904134448 | 27 | 239 | 8.0 | 9.7 | 0.00 | 0.00 | 0.00 | 78 | 1014.5 |
| 20260904133943 | 27 | 301 | 1.6 | 3.2 | 0.00 | 0.00 | 0.00 | 78 | 1014.6 |
| 20260904133437 | 27 | 282 | 4.8 | 6.4 | 0.00 | 0.00 | 0.00 | 79 | 1014.4 |
| 20260904132933 | 26 | 311 | 4.8 | 6.4 | 0.00 | 0.00 | 0.00 | 81 | 1014.4 |
| 20260904132428 | 26 | 274 | 6.4 | 6.4 | 0.00 | 0.00 | 0.00 | 81 | 1014.2 |
| 20260904131927 | 26 | 259 | 4.8 | 6.4 | 0.00 | 0.00 | 0.00 | 81 | 1014.4 |
| 20260904131423 | 26 | 312 | 6.4 | 6.4 | 0.00 | 0.00 | 0.00 | 82 | 1014.3 |
| 20260904130919 | 26 | 293 | 3.2 | 4.8 | 0.00 | 0.00 | 0.00 | 82 | 1014.1 |
| 20260904130417 | 25 | 299 | 4.8 | 6.4 | 0.00 | 0.00 | 0.00 | 82 | 1014.0 |
| 20260904125912 | 25 | 278 | 4.8 | 6.4 | 0.00 | 0.00 | 0.00 | 82 | 1013.9 |
| 20260904125409 | 25 | 236 | 4.8 | 4.8 | 0.00 | 0.00 | 0.00 | 83 | 1014.0 |
| 20260904124908 | 25 | 344 | 3.2 | 4.8 | 0.00 | 0.00 | 0.00 | 83 | 1013.6 |
| 20260904124405 | 25 | 297 | 1.6 | 3.2 | 0.00 | 0.00 | 0.00 | 84 | 1013.6 |
| 20260904123900 | 25 | 269 | 4.8 | 4.8 | 0.00 | 0.00 | 0.00 | 85 | 1013.6 |
| 20260904123355 | 25 | 280 | 3.2 | 4.8 | 0.00 | 0.00 | 0.00 | 85 | 1013.7 |
| 20260904122851 | 25 | 250 | 3.2 | 3.2 | 0.00 | 0.00 | 0.00 | 85 | 1013.6 |
| 20260904122349 | 25 | 323 | 1.6 | 3.2 | 0.00 | 0.00 | 0.00 | 85 | 1013.9 |
| 20260904121844 | 25 | 302 | 3.2 | 3.2 | 0.00 | 0.00 | 0.00 | 85 | 1013.6 |
| 20260904121341 | 24 | 256 | 1.6 | 3.2 | 0.00 | 0.00 | 0.00 | 86 | 1013.5 |
| 20260904120837 | 24 | 290 | 1.6 | 3.2 | 0.00 | 0.00 | 0.00 | 86 | 1013.4 |
| 20260904120333 | 24 | 275 | 1.6 | 3.2 | 0.00 | 0.00 | 0.00 | 86 | 1013.6 |
| 20260904115827 | 24 | 325 | 1.6 | 1.6 | 0.00 | 0.00 | 0.00 | 87 | 1013.6 |
| 20260904115323 | 24 | 293 | 1.6 | 1.6 | 0.00 | 0.00 | 0.00 | 87 | 1013.5 |
| 20260904114823 | 24 | 327 | 1.6 | 1.6 | 0.00 | 0.00 | 0.00 | 87 | 1013.4 |
| 20260904114318 | 24 | 337 | 0.0 | 0.0 | 0.00 | 0.00 | 0.00 | 88 | 1013.4 |
| 20260904113813 | 24 | 334 | 0.0 | 1.6 | 0.00 | 0.00 | 0.00 | 88 | 1013.3 |
| 20260904113312 | 23 | 329 | 1.6 | 1.6 | 0.00 | 0.00 | 0.00 | 88 | 1013.2 |
| 20260904112807 | 23 | 333 | 1.6 | 1.6 | 0.00 | 0.00 | 0.00 | 89 | 1013.3 |
| 20260904112305 | 23 | 343 | 0.0 | 1.6 | 0.00 | 0.00 | 0.00 | 89 | 1013.3 |
| 20260904111758 | 24 | 349 | 0.0 | 0.0 | 0.00 | 0.00 | 0.00 | 88 | 1013.2 |
| 20260904111254 | 24 | 351 | 0.0 | 0.0 | 0.00 | 0.00 | 0.00 | 88 | 1013.1 |
| 20260904110749 | 24 | 339 | 0.0 | 0.0 | 0.00 | 0.00 | 0.00 | 89 | 1013.1 |
| 20260904110248 | 24 | 345 | 0.0 | 0.0 | 0.00 | 0.00 | 0.00 | 88 | 1013.1 |
| 20260904105743 | 24 | 324 | 0.0 | 1.6 | 0.00 | 0.00 | 0.00 | 88 | 1013.1 |
| 20260904105238 | 24 | 338 | 1.6 | 1.6 | 0.00 | 0.00 | 0.00 | 88 | 1013.2 |
| 20260904104733 | 24 | 345 | 1.6 | 1.6 | 0.00 | 0.00 | 0.00 | 88 | 1013.0 |
| 20260904104229 | 24 | 40 | 1.6 | 3.2 | 0.00 | 0.00 | 0.00 | 88 | 1013.0 |
| 20260904103726 | 24 | 318 | 1.6 | 3.2 | 0.00 | 0.00 | 0.00 | 88 | 1013.1 |
| 20260904103220 | 24 | 324 | 1.6 | 1.6 | 0.00 | 0.00 | 0.00 | 89 | 1013.2 |
| 20260904102716 | 24 | 337 | 0.0 | 0.0 | 0.00 | 0.00 | 0.00 | 90 | 1013.4 |
| 20260904102211 | 24 | 345 | 0.0 | 0.0 | 0.00 | 0.00 | 0.00 | 90 | 1013.2 |
| 20260904101708 | 24 | 345 | 0.0 | 0.0 | 0.00 | 0.00 | 0.00 | 90 | 1013.4 |
| 20260904101203 | 25 | 345 | 0.0 | 0.0 | 0.00 | 0.00 | 0.00 | 89 | 1013.3 |
| 20260904100654 | 25 | 340 | 0.0 | 0.0 | 0.00 | 0.00 | 0.00 | 87 | 1013.2 |
| 20260904100149 | 25 | 338 | 0.0 | 0.0 | 0.00 | 0.00 | 0.00 | 87 | 1013.3 |
| 20260904095649 | 25 | 337 | 0.0 | 0.0 | 0.00 | 0.00 | 0.00 | 86 | 1013.2 |
| 20260904095148 | 25 | 332 | 0.0 | 0.0 | 0.00 | 0.00 | 0.00 | 87 | 1013.2 |
| 20260904094644 | 25 | 333 | 1.6 | 1.6 | 0.00 | 0.00 | 0.00 | 87 | 1013.2 |
| 20260904094138 | 25 | 304 | 1.6 | 3.2 | 0.00 | 0.00 | 0.00 | 87 | 1013.3 |
| 20260904093636 | 25 | 340 | 0.0 | 0.0 | 0.00 | 0.00 | 0.00 | 87 | 1013.3 |
| 20260904093135 | 25 | 338 | 0.0 | 0.0 | 0.00 | 0.00 | 0.00 | 87 | 1013.3 |
| 20260904092631 | 25 | 325 | 1.6 | 1.6 | 0.00 | 0.00 | 0.00 | 86 | 1013.2 |
| 20260904092127 | 25 | 336 | 0.0 | 0.0 | 0.00 | 0.00 | 0.00 | 86 | 1013.2 |
| 20260904091623 | 25 | 340 | 0.0 | 0.0 | 0.00 | 0.00 | 0.00 | 87 | 1013.3 |
| 20260904091123 | 25 | 323 | 1.6 | 1.6 | 0.00 | 0.00 | 0.00 | 87 | 1013.3 |
| 20260904090618 | 25 | 312 | 3.2 | 3.2 | 0.00 | 0.00 | 0.00 | 86 | 1013.3 |
| 20260904090114 | 25 | 283 | 3.2 | 3.2 | 0.00 | 0.00 | 0.00 | 86 | 1013.3 |
| 20260904085609 | 25 | 314 | 3.2 | 3.2 | 0.00 | 0.00 | 0.00 | 86 | 1013.2 |
| 20260904085108 | 25 | 337 | 0.0 | 0.0 | 0.00 | 0.00 | 0.00 | 86 | 1012.9 |
| 20260904084604 | 25 | 306 | 1.6 | 3.2 | 0.00 | 0.00 | 0.00 | 86 | 1013.0 |
| 20260904084100 | 25 | 330 | 1.6 | 1.6 | 0.00 | 0.00 | 0.00 | 86 | 1012.8 |
| 20260904083556 | 25 | 335 | 1.6 | 1.6 | 0.00 | 0.00 | 0.00 | 86 | 1012.7 |
| 20260904083052 | 25 | 330 | 3.2 | 3.2 | 0.00 | 0.00 | 0.00 | 86 | 1012.7 |
| 20260904082547 | 25 | 321 | 1.6 | 3.2 | 0.00 | 0.00 | 0.00 | 86 | 1012.7 |
| 20260904082042 | 25 | 215 | 6.4 | 6.4 | 0.00 | 0.00 | 0.00 | 86 | 1012.7 |
| 20260904081537 | 25 | 299 | 6.4 | 6.4 | 0.00 | 0.00 | 0.00 | 86 | 1012.6 |
| 20260904081033 | 25 | 235 | 3.2 | 4.8 | 0.00 | 0.00 | 0.00 | 86 | 1012.7 |
| 20260904080528 | 25 | 300 | 3.2 | 3.2 | 0.00 | 0.00 | 0.00 | 87 | 1012.7 |
| 20260904080024 | 25 | 210 | 6.4 | 6.4 | 0.00 | 0.00 | 0.00 | 87 | 1012.5 |
| 20260904075520 | 25 | 279 | 4.8 | 6.4 | 0.00 | 0.00 | 0.00 | 87 | 1012.6 |
| 20260904075015 | 25 | 67 | 3.2 | 4.8 | 0.00 | 0.00 | 0.00 | 87 | 1012.7 |
| 20260904074509 | 25 | 250 | 4.8 | 4.8 | 0.00 | 0.00 | 0.00 | 87 | 1012.6 |
| 20260904074008 | 25 | 290 | 3.2 | 3.2 | 0.00 | 0.00 | 0.00 | 87 | 1012.6 |
| 20260904073504 | 25 | 246 | 4.8 | 4.8 | 0.00 | 0.00 | 0.00 | 87 | 1012.7 |
| 20260904073000 | 25 | 243 | 4.8 | 4.8 | 0.00 | 0.00 | 0.00 | 88 | 1012.7 |
| 20260904072456 | 25 | 229 | 6.4 | 6.4 | 0.00 | 0.00 | 0.00 | 88 | 1012.7 |
| 20260904071955 | 25 | 264 | 4.8 | 4.8 | 0.00 | 0.00 | 0.00 | 87 | 1012.8 |
| 20260904071452 | 25 | 224 | 1.6 | 3.2 | 0.00 | 0.00 | 0.00 | 87 | 1013.1 |
| 20260904070951 | 26 | 224 | 6.4 | 6.4 | 0.00 | 0.00 | 0.00 | 87 | 1013.0 |
| 20260904070450 | 26 | 238 | 4.8 | 4.8 | 0.00 | 0.00 | 0.00 | 87 | 1013.3 |
| 20260904065945 | 26 | 208 | 4.8 | 6.4 | 0.00 | 0.00 | 0.00 | 87 | 1013.2 |
| 20260904065441 | 26 | 196 | 6.4 | 6.4 | 0.00 | 0.00 | 0.00 | 86 | 1013.3 |
| 20260904064936 | 26 | 148 | 3.2 | 3.2 | 0.00 | 0.00 | 0.00 | 86 | 1013.2 |
| 20260904064432 | 26 | 341 | 3.2 | 3.2 | 0.00 | 0.00 | 0.00 | 86 | 1013.2 |
| 20260904063927 | 26 | 81 | 3.2 | 4.8 | 0.00 | 0.00 | 0.00 | 86 | 1013.3 |
| 20260904063424 | 26 | 218 | 4.8 | 6.4 | 0.00 | 0.00 | 0.00 | 86 | 1013.3 |
| 20260904062919 | 26 | 285 | 3.2 | 3.2 | 0.00 | 0.00 | 0.00 | 86 | 1013.5 |
| 20260904062415 | 26 | 230 | 3.2 | 4.8 | 0.00 | 0.00 | 0.00 | 86 | 1013.7 |
| 20260904061910 | 26 | 293 | 3.2 | 3.2 | 0.00 | 0.00 | 0.00 | 86 | 1013.7 |
| 20260904061407 | 26 | 341 | 1.6 | 1.6 | 0.00 | 0.00 | 0.00 | 86 | 1013.7 |
| 20260904060903 | 26 | 0 | 1.6 | 3.2 | 0.00 | 0.00 | 0.00 | 86 | 1013.5 |
| 20260904060358 | 26 | 305 | 3.2 | 3.2 | 0.00 | 0.00 | 0.00 | 86 | 1013.7 |
| 20260904055853 | 26 | 333 | 1.6 | 1.6 | 0.00 | 0.00 | 0.00 | 86 | 1013.7 |
| 20260904055348 | 26 | 337 | 0.0 | 1.6 | 0.00 | 0.00 | 0.00 | 86 | 1013.5 |
| 20260904054844 | 26 | 216 | 3.2 | 3.2 | 0.00 | 0.00 | 0.00 | 85 | 1013.7 |
| 20260904054340 | 26 | 237 | 3.2 | 3.2 | 0.00 | 0.00 | 0.00 | 86 | 1013.5 |
| 20260904053835 | 26 | 329 | 1.6 | 1.6 | 0.00 | 0.00 | 0.00 | 86 | 1013.9 |
| 20260904053334 | 26 | 0 | 1.6 | 1.6 | 0.00 | 0.00 | 0.00 | 86 | 1013.6 |
| 20260904052830 | 26 | 319 | 3.2 | 3.2 | 0.00 | 0.00 | 0.00 | 86 | 1013.5 |
| 20260904052327 | 26 | 226 | 6.4 | 6.4 | 0.00 | 0.00 | 0.00 | 86 | 1013.5 |
| 20260904051823 | 26 | 316 | 3.2 | 3.2 | 0.00 | 0.00 | 0.00 | 86 | 1013.5 |
| 20260904051318 | 26 | 27 | 3.2 | 4.8 | 0.00 | 0.00 | 0.00 | 85 | 1013.4 |
| 20260904050813 | 27 | 329 | 3.2 | 3.2 | 0.00 | 0.00 | 0.00 | 85 | 1013.3 |
| 20260904050310 | 27 | 232 | 4.8 | 4.8 | 0.00 | 0.00 | 0.00 | 85 | 1013.3 |
| 20260904045805 | 27 | 261 | 1.6 | 3.2 | 0.00 | 0.00 | 0.00 | 84 | 1013.5 |
| 20260904045307 | 27 | 311 | 3.2 | 3.2 | 0.00 | 0.00 | 0.00 | 84 | 1013.4 |
| 20260904044759 | 27 | 303 | 3.2 | 4.8 | 0.00 | 0.00 | 0.00 | 83 | 1013.4 |
| 20260904044256 | 27 | 295 | 3.2 | 3.2 | 0.00 | 0.00 | 0.00 | 83 | 1013.6 |
| 20260904043752 | 27 | 230 | 3.2 | 4.8 | 0.00 | 0.00 | 0.00 | 83 | 1013.4 |
| 20260904043249 | 27 | 341 | 1.6 | 3.2 | 0.00 | 0.00 | 0.00 | 83 | 1013.5 |
| 20260904042743 | 27 | 345 | 3.2 | 3.2 | 0.00 | 0.00 | 0.00 | 82 | 1013.4 |